MET5207 - Boston to Greenville - Spartanburg

Embraer ERJ-170LR
N924AG
2 hrs 00 mins
691 nm
Scheduled - Daily

Bid/PiRep Status

Bid was submitted on December 31st, 2016 20:32 UTC.
PiRep # 74548: Approved by Sean Doyle on January 1st, 2017 20:52 UTC

Departure

Departing from
Boston (BOS)
Departure gate
Scheduled Departure
GMT 1900
Local 1500

Arrival

Arriving at
Greenville - Spartanburg (GSP)
Arrival gate
Unassigned
Scheduled Arrival
GMT 2100
Local 1700
METAR KGSP 250053Z 00000KT 10SM CLR 07/03 A2998 RMK AO2 SLP155 T00670028
TAF KGSP 242320Z 2500/2524 19003KT P6SM FEW250 FM251700 24007KT P6SM SCT150 BKN250

Route Map

Planning Resources

HAFNR GVE LYH
TERPZ3 LDN GVE J75 GSO J14 SPA
TERPZ5 FLASK J48 SPA92 J53 SPA ICASY OXABY
PATSS SWALO J75 SBJ V419 BIGGY J75 GVE V476 LYH WHTTL
BOS PUT HFD RBV OOD OTT GVE LYH SPA KGSP
Route:
OFP Layout:
Units:
Detailed Navlog:
ETOPS Planning:
Plan Stepclimbs:
Runway Analysis:
Include NOTAMS:
FIR NOTAMS:
Flight Maps:

Return Flights

MET5208
Embraer ERJ-170LR
2200 GMT
MET5210
Embraer ERJ-170LR
1030 GMT

Popularity

Hub Current Bids PiReps this month Total PiReps
KLAX 0 0 0
KBOS 0 0 3
KDFW 0 0 0